sensor_id;sensor_type;location;lat;lon;timestamp;pressure;altitude;pressure_sealevel;temperature;humidity
75551;BME280;65071;53.082;18.218;2023-01-01T00:00:43;100618.83;;;14.44;69.55
75551;BME280;65071;53.082;18.218;2023-01-01T00:03:29;100620.23;;;14.43;69.56
75551;BME280;65071;53.082;18.218;2023-01-01T00:05:55;100625.98;;;14.43;69.40
75551;BME280;65071;53.082;18.218;2023-01-01T00:08:21;100629.13;;;14.52;69.25
75551;BME280;65071;53.082;18.218;2023-01-01T00:10:47;100622.74;;;14.53;69.22
75551;BME280;65071;53.082;18.218;2023-01-01T00:13:13;100625.94;;;14.50;69.17
75551;BME280;65071;53.082;18.218;2023-01-01T00:15:39;100627.79;;;14.48;69.06
75551;BME280;65071;53.082;18.218;2023-01-01T00:18:05;100627.40;;;14.50;69.00
75551;BME280;65071;53.082;18.218;2023-01-01T00:20:31;100630.40;;;14.49;69.05
75551;BME280;65071;53.082;18.218;2023-01-01T00:22:57;100630.04;;;14.48;69.18
75551;BME280;65071;53.082;18.218;2023-01-01T00:25:23;100639.69;;;14.45;69.08
75551;BME280;65071;53.082;18.218;2023-01-01T00:27:50;100638.27;;;14.43;69.02
75551;BME280;65071;53.082;18.218;2023-01-01T00:30:16;100639.25;;;14.44;68.98
75551;BME280;65071;53.082;18.218;2023-01-01T00:32:42;100635.77;;;14.53;68.77
75551;BME280;65071;53.082;18.218;2023-01-01T00:35:08;100638.84;;;14.54;68.84
75551;BME280;65071;53.082;18.218;2023-01-01T00:37:34;100639.42;;;14.51;68.69
75551;BME280;65071;53.082;18.218;2023-01-01T00:40:00;100642.50;;;14.48;68.70
75551;BME280;65071;53.082;18.218;2023-01-01T00:42:26;100638.66;;;14.48;68.58
75551;BME280;65071;53.082;18.218;2023-01-01T00:44:52;100642.13;;;14.46;68.46
75551;BME280;65071;53.082;18.218;2023-01-01T00:47:18;100639.69;;;14.55;68.41
75551;BME280;65071;53.082;18.218;2023-01-01T00:49:43;100632.84;;;14.55;68.47
75551;BME280;65071;53.082;18.218;2023-01-01T00:52:09;100635.13;;;14.50;68.51
75551;BME280;65071;53.082;18.218;2023-01-01T00:54:35;100634.63;;;14.47;68.51
75551;BME280;65071;53.082;18.218;2023-01-01T00:57:01;100639.84;;;14.47;68.33
75551;BME280;65071;53.082;18.218;2023-01-01T00:59:27;100642.48;;;14.48;68.31
75551;BME280;65071;53.082;18.218;2023-01-01T01:01:53;100646.80;;;14.57;68.13
75551;BME280;65071;53.082;18.218;2023-01-01T01:04:19;100646.02;;;14.56;67.98
75551;BME280;65071;53.082;18.218;2023-01-01T01:06:45;100635.77;;;14.57;67.83
75551;BME280;65071;53.082;18.218;2023-01-01T01:09:11;100632.37;;;14.58;67.80
75551;BME280;65071;53.082;18.218;2023-01-01T01:11:37;100634.85;;;14.56;67.83
75551;BME280;65071;53.082;18.218;2023-01-01T01:14:03;100630.98;;;14.58;67.73
75551;BME280;65071;53.082;18.218;2023-01-01T01:16:31;100634.20;;;14.63;67.73
75551;BME280;65071;53.082;18.218;2023-01-01T01:18:59;100638.89;;;14.60;67.61
75551;BME280;65071;53.082;18.218;2023-01-01T01:21:29;100634.59;;;14.58;67.50
75551;BME280;65071;53.082;18.218;2023-01-01T01:23:58;100634.55;;;14.54;67.64
75551;BME280;65071;53.082;18.218;2023-01-01T01:26:27;100632.45;;;14.55;67.55
75551;BME280;65071;53.082;18.218;2023-01-01T01:28:54;100632.92;;;14.57;67.52
75551;BME280;65071;53.082;18.218;2023-01-01T01:31:22;100636.46;;;14.59;67.60
75551;BME280;65071;53.082;18.218;2023-01-01T01:33:49;100635.52;;;14.55;67.59
75551;BME280;65071;53.082;18.218;2023-01-01T01:36:16;100637.20;;;14.50;67.56
75551;BME280;65071;53.082;18.218;2023-01-01T01:38:43;100641.37;;;14.48;67.53
75551;BME280;65071;53.082;18.218;2023-01-01T01:41:15;100642.05;;;14.49;67.53
75551;BME280;65071;53.082;18.218;2023-01-01T01:46:17;100655.86;;;14.48;67.63
75551;BME280;65071;53.082;18.218;2023-01-01T01:48:48;100658.40;;;14.46;67.49
75551;BME280;65071;53.082;18.218;2023-01-01T01:51:17;100652.31;;;14.44;67.37
75551;BME280;65071;53.082;18.218;2023-01-01T01:53:48;100651.48;;;14.42;67.37
75551;BME280;65071;53.082;18.218;2023-01-01T01:56:24;100654.49;;;14.39;67.40
75551;BME280;65071;53.082;18.218;2023-01-01T01:58:53;100652.64;;;14.43;67.41
75551;BME280;65071;53.082;18.218;2023-01-01T02:01:23;100654.33;;;14.42;67.44
75551;BME280;65071;53.082;18.218;2023-01-01T02:03:56;100650.45;;;14.38;67.40
75551;BME280;65071;53.082;18.218;2023-01-01T02:06:25;100655.83;;;14.38;67.45
75551;BME280;65071;53.082;18.218;2023-01-01T02:08:52;100659.73;;;14.37;67.38
75551;BME280;65071;53.082;18.218;2023-01-01T02:11:18;100665.86;;;14.34;67.46
75551;BME280;65071;53.082;18.218;2023-01-01T02:13:44;100667.95;;;14.47;66.94
75551;BME280;65071;53.082;18.218;2023-01-01T02:16:22;100668.23;;;14.49;66.89
75551;BME280;65071;53.082;18.218;2023-01-01T02:19:10;100669.94;;;14.49;66.74
75551;BME280;65071;53.082;18.218;2023-01-01T02:24:28;100666.45;;;14.47;66.47
75551;BME280;65071;53.082;18.218;2023-01-01T02:27:12;100668.92;;;14.46;66.44
75551;BME280;65071;53.082;18.218;2023-01-01T02:29:45;100674.29;;;14.53;66.57
75551;BME280;65071;53.082;18.218;2023-01-01T02:32:18;100673.71;;;14.52;66.25
75551;BME280;65071;53.082;18.218;2023-01-01T02:35:07;100674.63;;;14.47;66.33
75551;BME280;65071;53.082;18.218;2023-01-01T02:37:58;100677.92;;;14.46;66.11
75551;BME280;65071;53.082;18.218;2023-01-01T02:40:26;100677.23;;;14.41;66.14
75551;BME280;65071;53.082;18.218;2023-01-01T02:42:54;100677.70;;;14.39;66.12
75551;BME280;65071;53.082;18.218;2023-01-01T02:45:21;100677.11;;;14.37;66.38
75551;BME280;65071;53.082;18.218;2023-01-01T02:47:46;100672.16;;;14.46;66.22
75551;BME280;65071;53.082;18.218;2023-01-01T02:50:16;100669.87;;;14.43;66.16
75551;BME280;65071;53.082;18.218;2023-01-01T02:53:06;100666.95;;;14.37;66.06
75551;BME280;65071;53.082;18.218;2023-01-01T02:55:35;100668.04;;;14.32;66.21
75551;BME280;65071;53.082;18.218;2023-01-01T02:58:11;100671.43;;;14.31;66.10
75551;BME280;65071;53.082;18.218;2023-01-01T03:01:04;100672.11;;;14.26;66.15
75551;BME280;65071;53.082;18.218;2023-01-01T03:06:31;100672.05;;;14.32;66.12
75551;BME280;65071;53.082;18.218;2023-01-01T03:12:35;100682.14;;;14.23;65.77
75551;BME280;65071;53.082;18.218;2023-01-01T03:14:44;100691.59;;;14.19;65.88
75551;BME280;65071;53.082;18.218;2023-01-01T03:17:25;100686.09;;;14.14;65.89
75551;BME280;65071;53.082;18.218;2023-01-01T03:19:54;100676.14;;;14.11;65.87
75551;BME280;65071;53.082;18.218;2023-01-01T03:22:26;100689.39;;;14.07;65.87
75551;BME280;65071;53.082;18.218;2023-01-01T03:25:05;100691.46;;;14.15;65.93
75551;BME280;65071;53.082;18.218;2023-01-01T03:27:42;100696.36;;;14.16;65.61
75551;BME280;65071;53.082;18.218;2023-01-01T03:30:11;100695.35;;;14.12;65.54
75551;BME280;65071;53.082;18.218;2023-01-01T03:32:52;100687.67;;;14.08;65.68
75551;BME280;65071;53.082;18.218;2023-01-01T03:35:29;100697.52;;;14.08;65.59
75551;BME280;65071;53.082;18.218;2023-01-01T03:37:58;100694.02;;;14.04;65.58
75551;BME280;65071;53.082;18.218;2023-01-01T03:40:26;100696.42;;;14.02;65.66
75551;BME280;65071;53.082;18.218;2023-01-01T03:42:58;100691.79;;;14.09;65.39
75551;BME280;65071;53.082;18.218;2023-01-01T03:45:40;100690.61;;;14.17;65.19
75551;BME280;65071;53.082;18.218;2023-01-01T03:48:08;100687.14;;;14.08;65.18
75551;BME280;65071;53.082;18.218;2023-01-01T03:50:48;100688.44;;;14.00;65.27
75551;BME280;65071;53.082;18.218;2023-01-01T03:53:36;100690.61;;;13.95;65.29
75551;BME280;65071;53.082;18.218;2023-01-01T03:56:21;100689.48;;;13.93;65.25
75551;BME280;65071;53.082;18.218;2023-01-01T03:58:58;100689.12;;;13.91;65.23
75551;BME280;65071;53.082;18.218;2023-01-01T04:01:30;100692.67;;;13.89;65.28
75551;BME280;65071;53.082;18.218;2023-01-01T04:03:58;100689.42;;;13.89;65.32
75551;BME280;65071;53.082;18.218;2023-01-01T04:06:25;100696.38;;;13.95;65.27
75551;BME280;65071;53.082;18.218;2023-01-01T04:08:54;100695.94;;;13.92;65.26
75551;BME280;65071;53.082;18.218;2023-01-01T04:11:26;100695.87;;;13.88;65.31
75551;BME280;65071;53.082;18.218;2023-01-01T04:14:11;100696.02;;;13.87;65.32
75551;BME280;65071;53.082;18.218;2023-01-01T04:16:37;100703.70;;;13.89;65.04
75551;BME280;65071;53.082;18.218;2023-01-01T04:19:04;100703.20;;;13.88;65.01
75551;BME280;65071;53.082;18.218;2023-01-01T04:21:32;100695.48;;;13.85;64.98
75551;BME280;65071;53.082;18.218;2023-01-01T04:23:58;100698.11;;;13.81;65.09
75551;BME280;65071;53.082;18.218;2023-01-01T04:26:24;100708.88;;;13.83;65.16
75551;BME280;65071;53.082;18.218;2023-01-01T04:28:50;100713.41;;;13.88;65.27
75551;BME280;65071;53.082;18.218;2023-01-01T04:31:16;100728.35;;;13.82;65.11
75551;BME280;65071;53.082;18.218;2023-01-01T04:33:42;100738.28;;;13.79;65.02
75551;BME280;65071;53.082;18.218;2023-01-01T04:36:09;100743.65;;;13.75;65.11
75551;BME280;65071;53.082;18.218;2023-01-01T04:38:36;100749.13;;;13.69;65.13
75551;BME280;65071;53.082;18.218;2023-01-01T04:41:03;100750.48;;;13.65;65.32
75551;BME280;65071;53.082;18.218;2023-01-01T04:43:30;100752.35;;;13.65;65.24
75551;BME280;65071;53.082;18.218;2023-01-01T04:46:01;100756.61;;;13.64;65.39
75551;BME280;65071;53.082;18.218;2023-01-01T04:48:29;100752.88;;;13.70;65.41
75551;BME280;65071;53.082;18.218;2023-01-01T04:51:01;100757.30;;;13.66;65.36
75551;BME280;65071;53.082;18.218;2023-01-01T04:53:29;100759.16;;;13.64;65.27
75551;BME280;65071;53.082;18.218;2023-01-01T04:55:55;100758.76;;;13.61;65.26
75551;BME280;65071;53.082;18.218;2023-01-01T04:58:21;100755.40;;;13.60;65.20
75551;BME280;65071;53.082;18.218;2023-01-01T05:00:48;100751.27;;;13.60;65.15
75551;BME280;65071;53.082;18.218;2023-01-01T05:03:16;100754.08;;;13.61;65.05
75551;BME280;65071;53.082;18.218;2023-01-01T05:05:42;100752.39;;;13.63;64.84
75551;BME280;65071;53.082;18.218;2023-01-01T05:08:09;100757.73;;;13.60;64.91
75551;BME280;65071;53.082;18.218;2023-01-01T05:10:34;100756.94;;;13.60;64.87
75551;BME280;65071;53.082;18.218;2023-01-01T05:13:00;100760.55;;;13.66;65.04
75551;BME280;65071;53.082;18.218;2023-01-01T05:15:30;100760.03;;;13.70;64.76
75551;BME280;65071;53.082;18.218;2023-01-01T05:17:56;100758.31;;;13.68;64.63
75551;BME280;65071;53.082;18.218;2023-01-01T05:20:22;100761.81;;;13.63;64.68
75551;BME280;65071;53.082;18.218;2023-01-01T05:22:48;100770.05;;;13.62;64.60
75551;BME280;65071;53.082;18.218;2023-01-01T05:25:14;100771.64;;;13.62;64.53
75551;BME280;65071;53.082;18.218;2023-01-01T05:27:39;100763.81;;;13.61;64.40
75551;BME280;65071;53.082;18.218;2023-01-01T05:30:06;100758.19;;;13.59;64.35
75551;BME280;65071;53.082;18.218;2023-01-01T05:32:32;100765.14;;;13.59;64.33
75551;BME280;65071;53.082;18.218;2023-01-01T05:34:58;100771.34;;;13.57;64.34
75551;BME280;65071;53.082;18.218;2023-01-01T05:37:24;100765.76;;;13.53;64.26
75551;BME280;65071;53.082;18.218;2023-01-01T05:39:50;100781.52;;;13.52;64.18
75551;BME280;65071;53.082;18.218;2023-01-01T05:42:16;100788.97;;;13.56;64.20
75551;BME280;65071;53.082;18.218;2023-01-01T05:44:43;100795.64;;;13.54;64.37
75551;BME280;65071;53.082;18.218;2023-01-01T05:47:09;100799.58;;;13.47;64.22
75551;BME280;65071;53.082;18.218;2023-01-01T05:49:35;100804.08;;;13.44;64.27
75551;BME280;65071;53.082;18.218;2023-01-01T05:52:01;100805.88;;;13.41;64.26
75551;BME280;65071;53.082;18.218;2023-01-01T05:54:27;100810.52;;;13.38;64.19
75551;BME280;65071;53.082;18.218;2023-01-01T05:56:52;100809.00;;;13.37;64.17
75551;BME280;65071;53.082;18.218;2023-01-01T05:59:18;100810.22;;;13.34;64.24
75551;BME280;65071;53.082;18.218;2023-01-01T06:01:44;100812.45;;;13.34;64.10
75551;BME280;65071;53.082;18.218;2023-01-01T06:04:10;100805.08;;;13.33;64.01
75551;BME280;65071;53.082;18.218;2023-01-01T06:06:36;100806.33;;;13.34;64.07
75551;BME280;65071;53.082;18.218;2023-01-01T06:09:03;100807.67;;;13.31;63.85
75551;BME280;65071;53.082;18.218;2023-01-01T06:11:30;100811.67;;;13.29;64.08
75551;BME280;65071;53.082;18.218;2023-01-01T06:13:58;100812.34;;;13.31;64.17
75551;BME280;65071;53.082;18.218;2023-01-01T06:16:25;100817.84;;;13.34;64.03
75551;BME280;65071;53.082;18.218;2023-01-01T06:18:52;100815.40;;;13.38;64.08
75551;BME280;65071;53.082;18.218;2023-01-01T06:21:20;100809.36;;;13.40;63.79
75551;BME280;65071;53.082;18.218;2023-01-01T06:23:46;100809.20;;;13.40;63.78
75551;BME280;65071;53.082;18.218;2023-01-01T06:26:20;100808.77;;;13.42;63.74
75551;BME280;65071;53.082;18.218;2023-01-01T06:28:47;100819.31;;;13.42;63.61
75551;BME280;65071;53.082;18.218;2023-01-01T06:31:17;100817.80;;;13.46;63.43
75551;BME280;65071;53.082;18.218;2023-01-01T06:33:44;100820.52;;;13.50;63.17
75551;BME280;65071;53.082;18.218;2023-01-01T06:36:12;100824.54;;;13.50;63.16
75551;BME280;65071;53.082;18.218;2023-01-01T06:38:44;100830.58;;;13.48;63.37
75551;BME280;65071;53.082;18.218;2023-01-01T06:41:15;100833.48;;;13.49;62.99
75551;BME280;65071;53.082;18.218;2023-01-01T06:43:42;100835.65;;;13.51;63.10
75551;BME280;65071;53.082;18.218;2023-01-01T06:46:19;100834.81;;;13.52;63.00
75551;BME280;65071;53.082;18.218;2023-01-01T06:48:51;100832.64;;;13.58;62.80
75551;BME280;65071;53.082;18.218;2023-01-01T06:51:20;100836.98;;;13.56;62.81
75551;BME280;65071;53.082;18.218;2023-01-01T06:53:47;100839.63;;;13.59;62.54
75551;BME280;65071;53.082;18.218;2023-01-01T06:56:14;100846.06;;;13.59;62.46
75551;BME280;65071;53.082;18.218;2023-01-01T06:58:40;100852.64;;;13.62;62.54
75551;BME280;65071;53.082;18.218;2023-01-01T07:01:11;100849.70;;;13.64;62.42
75551;BME280;65071;53.082;18.218;2023-01-01T07:03:39;100849.61;;;13.69;62.14
75551;BME280;65071;53.082;18.218;2023-01-01T07:06:06;100845.91;;;13.70;62.13
75551;BME280;65071;53.082;18.218;2023-01-01T07:08:33;100848.55;;;13.74;62.06
75551;BME280;65071;53.082;18.218;2023-01-01T07:10:59;100846.75;;;13.80;61.68
75551;BME280;65071;53.082;18.218;2023-01-01T07:13:26;100856.85;;;13.86;61.60
75551;BME280;65071;53.082;18.218;2023-01-01T07:15:53;100861.02;;;13.90;61.39
75551;BME280;65071;53.082;18.218;2023-01-01T07:18:21;100861.75;;;13.96;61.24
75551;BME280;65071;53.082;18.218;2023-01-01T07:20:50;100864.95;;;14.05;60.92
75551;BME280;65071;53.082;18.218;2023-01-01T07:23:17;100865.71;;;14.14;60.66
75551;BME280;65071;53.082;18.218;2023-01-01T07:25:43;100865.32;;;14.22;60.35
75551;BME280;65071;53.082;18.218;2023-01-01T07:28:09;100870.57;;;14.27;60.01
75551;BME280;65071;53.082;18.218;2023-01-01T07:30:35;100871.30;;;14.33;59.84
75551;BME280;65071;53.082;18.218;2023-01-01T07:33:01;100879.03;;;14.43;59.44
75551;BME280;65071;53.082;18.218;2023-01-01T07:35:27;100881.45;;;14.49;59.54
75551;BME280;65071;53.082;18.218;2023-01-01T07:37:53;100882.58;;;14.58;59.21
75551;BME280;65071;53.082;18.218;2023-01-01T07:40:18;100886.79;;;14.67;58.66
75551;BME280;65071;53.082;18.218;2023-01-01T07:42:44;100886.95;;;14.83;58.44
75551;BME280;65071;53.082;18.218;2023-01-01T07:45:12;100892.74;;;15.05;57.69
75551;BME280;65071;53.082;18.218;2023-01-01T07:47:38;100894.45;;;15.32;57.13
75551;BME280;65071;53.082;18.218;2023-01-01T07:50:05;100893.61;;;15.58;56.76
75551;BME280;65071;53.082;18.218;2023-01-01T07:52:31;100897.29;;;15.78;56.39
75551;BME280;65071;53.082;18.218;2023-01-01T07:54:57;100903.98;;;16.04;55.18
75551;BME280;65071;53.082;18.218;2023-01-01T07:57:22;100909.63;;;16.26;54.83
75551;BME280;65071;53.082;18.218;2023-01-01T07:59:48;100919.13;;;16.33;54.69
75551;BME280;65071;53.082;18.218;2023-01-01T08:02:14;100918.08;;;16.31;54.15
75551;BME280;65071;53.082;18.218;2023-01-01T08:04:40;100921.45;;;16.25;54.08
75551;BME280;65071;53.082;18.218;2023-01-01T08:07:06;100923.20;;;16.18;53.80
75551;BME280;65071;53.082;18.218;2023-01-01T08:09:32;100920.05;;;16.11;53.42
75551;BME280;65071;53.082;18.218;2023-01-01T08:11:58;100917.64;;;16.04;53.74
75551;BME280;65071;53.082;18.218;2023-01-01T08:14:23;100917.51;;;16.00;54.17
75551;BME280;65071;53.082;18.218;2023-01-01T08:16:52;100912.90;;;15.97;53.77
75551;BME280;65071;53.082;18.218;2023-01-01T08:19:18;100915.72;;;15.97;54.35
75551;BME280;65071;53.082;18.218;2023-01-01T08:21:44;100920.00;;;15.99;53.80
75551;BME280;65071;53.082;18.218;2023-01-01T08:24:10;100917.94;;;16.02;53.66
75551;BME280;65071;53.082;18.218;2023-01-01T08:26:36;100920.23;;;16.00;53.79
75551;BME280;65071;53.082;18.218;2023-01-01T08:29:04;100917.77;;;16.01;53.36
75551;BME280;65071;53.082;18.218;2023-01-01T08:31:30;100921.22;;;16.04;53.32
75551;BME280;65071;53.082;18.218;2023-01-01T08:33:56;100927.41;;;16.07;53.11
75551;BME280;65071;53.082;18.218;2023-01-01T08:36:23;100930.66;;;16.09;52.79
75551;BME280;65071;53.082;18.218;2023-01-01T08:38:49;100933.59;;;16.08;52.94
75551;BME280;65071;53.082;18.218;2023-01-01T08:41:15;100924.86;;;16.10;53.03
75551;BME280;65071;53.082;18.218;2023-01-01T08:43:41;100931.68;;;16.15;52.72
75551;BME280;65071;53.082;18.218;2023-01-01T08:46:07;100922.88;;;16.16;52.44
75551;BME280;65071;53.082;18.218;2023-01-01T08:48:33;100924.89;;;16.19;52.43
75551;BME280;65071;53.082;18.218;2023-01-01T08:51:00;100924.09;;;16.22;52.15
75551;BME280;65071;53.082;18.218;2023-01-01T08:53:27;100926.17;;;16.26;51.93
75551;BME280;65071;53.082;18.218;2023-01-01T08:56:05;100926.10;;;16.27;52.12
75551;BME280;65071;53.082;18.218;2023-01-01T08:58:32;100921.84;;;16.25;52.21
75551;BME280;65071;53.082;18.218;2023-01-01T09:00:58;100929.41;;;16.25;52.23
75551;BME280;65071;53.082;18.218;2023-01-01T09:03:25;100937.76;;;16.23;52.18
75551;BME280;65071;53.082;18.218;2023-01-01T09:05:52;100934.55;;;16.21;52.17
75551;BME280;65071;53.082;18.218;2023-01-01T09:08:19;100938.98;;;16.18;52.21
75551;BME280;65071;53.082;18.218;2023-01-01T09:10:45;100942.42;;;16.13;52.24
75551;BME280;65071;53.082;18.218;2023-01-01T09:13:13;100941.06;;;16.12;52.34
75551;BME280;65071;53.082;18.218;2023-01-01T09:15:39;100941.33;;;16.13;52.37
75551;BME280;65071;53.082;18.218;2023-01-01T09:18:08;100943.02;;;16.14;52.12
75551;BME280;65071;53.082;18.218;2023-01-01T09:20:35;100938.83;;;16.16;52.40
75551;BME280;65071;53.082;18.218;2023-01-01T09:23:01;100940.98;;;16.18;52.45
75551;BME280;65071;53.082;18.218;2023-01-01T09:25:27;100930.08;;;16.19;52.30
75551;BME280;65071;53.082;18.218;2023-01-01T09:28:01;100935.71;;;16.21;52.16
75551;BME280;65071;53.082;18.218;2023-01-01T09:30:28;100935.37;;;16.25;51.98
75551;BME280;65071;53.082;18.218;2023-01-01T09:32:54;100936.00;;;16.30;51.64
75551;BME280;65071;53.082;18.218;2023-01-01T09:35:20;100926.48;;;16.35;51.33
75551;BME280;65071;53.082;18.218;2023-01-01T09:37:47;100924.10;;;16.38;51.38
75551;BME280;65071;53.082;18.218;2023-01-01T09:40:27;100920.39;;;16.39;51.39
75551;BME280;65071;53.082;18.218;2023-01-01T09:48:19;100926.44;;;16.46;51.54
75551;BME280;65071;53.082;18.218;2023-01-01T09:50:46;100924.53;;;16.45;51.51
75551;BME280;65071;53.082;18.218;2023-01-01T09:53:26;100924.78;;;16.47;51.24
75551;BME280;65071;53.082;18.218;2023-01-01T09:55:58;100919.93;;;16.44;51.54
75551;BME280;65071;53.082;18.218;2023-01-01T09:58:31;100927.10;;;16.45;51.25
75551;BME280;65071;53.082;18.218;2023-01-01T10:01:32;100928.69;;;16.42;51.31
75551;BME280;65071;53.082;18.218;2023-01-01T10:04:28;100931.77;;;16.44;51.28
75551;BME280;65071;53.082;18.218;2023-01-01T10:07:18;100936.03;;;16.43;51.45
75551;BME280;65071;53.082;18.218;2023-01-01T10:13:01;100945.36;;;16.41;51.57
75551;BME280;65071;53.082;18.218;2023-01-01T10:15:39;100958.40;;;16.40;51.70
75551;BME280;65071;53.082;18.218;2023-01-01T10:18:19;100960.18;;;16.44;51.41
75551;BME280;65071;53.082;18.218;2023-01-01T10:23:41;100970.15;;;16.49;51.48
75551;BME280;65071;53.082;18.218;2023-01-01T10:26:17;100971.49;;;16.49;51.54
75551;BME280;65071;53.082;18.218;2023-01-01T10:31:49;100968.34;;;16.52;51.39
75551;BME280;65071;53.082;18.218;2023-01-01T10:34:22;100966.65;;;16.54;51.24
75551;BME280;65071;53.082;18.218;2023-01-01T10:36:57;100966.08;;;16.54;51.27
75551;BME280;65071;53.082;18.218;2023-01-01T10:39:25;100967.13;;;16.53;51.36
75551;BME280;65071;53.082;18.218;2023-01-01T10:41:52;100967.04;;;16.52;51.13
75551;BME280;65071;53.082;18.218;2023-01-01T10:44:26;100963.57;;;16.53;50.92
75551;BME280;65071;53.082;18.218;2023-01-01T10:46:56;100961.27;;;16.52;51.01
75551;BME280;65071;53.082;18.218;2023-01-01T10:49:23;100958.35;;;16.53;50.88
75551;BME280;65071;53.082;18.218;2023-01-01T10:51:51;100962.73;;;16.52;51.02
75551;BME280;65071;53.082;18.218;2023-01-01T10:54:37;100955.18;;;16.48;51.06
75551;BME280;65071;53.082;18.218;2023-01-01T10:59:52;100950.45;;;16.48;50.90
75551;BME280;65071;53.082;18.218;2023-01-01T11:02:27;100953.50;;;16.46;51.22
75551;BME280;65071;53.082;18.218;2023-01-01T11:05:18;100954.15;;;16.49;50.73
75551;BME280;65071;53.082;18.218;2023-01-01T11:07:45;100947.91;;;16.47;50.82
75551;BME280;65071;53.082;18.218;2023-01-01T11:10:20;100952.52;;;16.42;51.14
75551;BME280;65071;53.082;18.218;2023-01-01T11:12:47;100956.59;;;16.40;51.10
75551;BME280;65071;53.082;18.218;2023-01-01T11:15:25;100959.02;;;16.39;51.01
75551;BME280;65071;53.082;18.218;2023-01-01T11:20:36;100982.34;;;16.36;50.91
75551;BME280;65071;53.082;18.218;2023-01-01T11:23:34;100980.22;;;16.35;50.87
75551;BME280;65071;53.082;18.218;2023-01-01T11:28:42;100968.77;;;16.34;50.79
75551;BME280;65071;53.082;18.218;2023-01-01T11:31:29;100961.33;;;16.37;50.56
75551;BME280;65071;53.082;18.218;2023-01-01T11:33:58;100959.80;;;16.39;50.61
75551;BME280;65071;53.082;18.218;2023-01-01T11:36:32;100964.39;;;16.44;50.98
75551;BME280;65071;53.082;18.218;2023-01-01T11:39:21;100964.63;;;16.47;50.65
75551;BME280;65071;53.082;18.218;2023-01-01T11:41:51;100964.58;;;16.50;50.49
75551;BME280;65071;53.082;18.218;2023-01-01T11:44:35;100965.17;;;16.53;50.53
75551;BME280;65071;53.082;18.218;2023-01-01T11:47:04;100970.81;;;16.54;50.74
75551;BME280;65071;53.082;18.218;2023-01-01T11:49:31;100974.81;;;16.61;50.22
75551;BME280;65071;53.082;18.218;2023-01-01T11:51:57;100973.84;;;16.64;50.33
75551;BME280;65071;53.082;18.218;2023-01-01T11:54:29;100977.01;;;16.71;50.31
75551;BME280;65071;53.082;18.218;2023-01-01T11:57:03;100978.96;;;16.81;50.18
75551;BME280;65071;53.082;18.218;2023-01-01T11:59:47;100977.52;;;16.85;49.92
75551;BME280;65071;53.082;18.218;2023-01-01T12:02:20;100979.46;;;16.92;49.71
75551;BME280;65071;53.082;18.218;2023-01-01T12:04:54;100972.49;;;16.92;50.00
75551;BME280;65071;53.082;18.218;2023-01-01T12:07:28;100979.93;;;16.91;49.73
75551;BME280;65071;53.082;18.218;2023-01-01T12:10:08;100976.56;;;16.88;49.60
75551;BME280;65071;53.082;18.218;2023-01-01T12:12:43;100987.21;;;16.83;49.93
75551;BME280;65071;53.082;18.218;2023-01-01T12:18:11;100992.56;;;16.71;49.92
75551;BME280;65071;53.082;18.218;2023-01-01T12:20:43;100996.20;;;16.62;50.33
75551;BME280;65071;53.082;18.218;2023-01-01T12:23:12;100996.20;;;16.51;50.47
75551;BME280;65071;53.082;18.218;2023-01-01T12:25:43;101005.90;;;16.45;50.84
75551;BME280;65071;53.082;18.218;2023-01-01T12:31:11;101027.81;;;16.38;51.01
75551;BME280;65071;53.082;18.218;2023-01-01T12:47:33;101003.11;;;16.14;52.08
75551;BME280;65071;53.082;18.218;2023-01-01T12:50:27;101010.64;;;16.13;52.17
75551;BME280;65071;53.082;18.218;2023-01-01T12:52:57;101005.27;;;16.14;52.25
75551;BME280;65071;53.082;18.218;2023-01-01T12:58:11;101031.63;;;16.11;52.43
75551;BME280;65071;53.082;18.218;2023-01-01T13:00:42;101031.15;;;16.10;52.49
75551;BME280;65071;53.082;18.218;2023-01-01T13:03:18;101031.30;;;16.09;52.63
75551;BME280;65071;53.082;18.218;2023-01-01T13:05:49;101030.33;;;16.08;52.51
75551;BME280;65071;53.082;18.218;2023-01-01T13:08:16;101023.81;;;16.05;52.68
75551;BME280;65071;53.082;18.218;2023-01-01T13:10:44;101044.41;;;16.04;52.76
75551;BME280;65071;53.082;18.218;2023-01-01T13:13:12;101048.51;;;16.07;52.62
75551;BME280;65071;53.082;18.218;2023-01-01T13:20:39;101041.27;;;16.00;52.99
75551;BME280;65071;53.082;18.218;2023-01-01T13:34:31;101072.35;;;15.87;53.42
75551;BME280;65071;53.082;18.218;2023-01-01T13:45:12;101085.08;;;15.69;54.08
75551;BME280;65071;53.082;18.218;2023-01-01T14:01:55;101101.13;;;15.37;55.02
75551;BME280;65071;53.082;18.218;2023-01-01T14:04:41;101103.15;;;15.30;55.23
75551;BME280;65071;53.082;18.218;2023-01-01T14:07:27;101108.16;;;15.25;55.29
75551;BME280;65071;53.082;18.218;2023-01-01T14:10:17;101105.20;;;15.23;55.30
75551;BME280;65071;53.082;18.218;2023-01-01T14:12:44;101108.44;;;15.21;55.44
75551;BME280;65071;53.082;18.218;2023-01-01T14:15:31;101116.19;;;15.17;55.57
75551;BME280;65071;53.082;18.218;2023-01-01T14:17:59;101118.83;;;15.13;55.55
75551;BME280;65071;53.082;18.218;2023-01-01T14:20:32;101118.15;;;15.08;55.65
75551;BME280;65071;53.082;18.218;2023-01-01T14:23:05;101125.23;;;15.07;55.98
75551;BME280;65071;53.082;18.218;2023-01-01T14:25:32;101130.16;;;15.02;55.97
75551;BME280;65071;53.082;18.218;2023-01-01T14:27:59;101122.05;;;14.98;56.09
75551;BME280;65071;53.082;18.218;2023-01-01T14:30:29;101118.32;;;14.94;56.18